Time;durP1;ratioP1;P1;durP2;ratioP2;P2;SDS_P1;SDS_P2;PMS_P1;PMS_P2;Temp;Humidity;BMP_temperature;BMP_pressure;BME280_temperature;BME280_humidity;BME280_pressure;Samples;Min_cycle;Max_cycle;Signal;HPM_P1;HPM_P2
2023/02/13 00:00:58;;;;;;;25.92;16.20;;;10.10;90.30;;;;;;5049086;28;20871;-74
2023/02/13 00:03:23;;;;;;;29.05;18.13;;;10.10;90.30;;;;;;5044366;28;20036;-75
2023/02/13 00:05:49;;;;;;;32.55;19.42;;;10.20;90.30;;;;;;5045221;28;20086;-74
2023/02/13 00:08:15;;;;;;;32.08;19.40;;;10.10;90.30;;;;;;5048876;28;20029;-73
2023/02/13 00:10:40;;;;;;;27.10;15.45;;;10.10;90.30;;;;;;5041398;28;20033;-72
2023/02/13 00:13:06;;;;;;;29.45;18.63;;;10.10;90.60;;;;;;5047221;28;20029;-74
2023/02/13 00:15:32;;;;;;;28.58;17.05;;;10.10;90.60;;;;;;5048269;28;20032;-74
2023/02/13 00:17:58;;;;;;;30.40;17.25;;;10.10;90.50;;;;;;5054586;28;20074;-75
2023/02/13 00:20:24;;;;;;;18.88;11.38;;;10.00;90.40;;;;;;5047389;28;20036;-73
2023/02/13 00:22:50;;;;;;;27.55;16.00;;;10.00;90.60;;;;;;5044769;28;20148;-73
2023/02/13 00:25:15;;;;;;;25.90;15.35;;;10.00;90.80;;;;;;5037545;28;20499;-73
2023/02/13 00:27:41;;;;;;;27.88;16.77;;;10.00;91.00;;;;;;5048882;28;20899;-73
2023/02/13 00:30:07;;;;;;;25.17;15.15;;;10.00;90.90;;;;;;5047398;28;20025;-74
2023/02/13 00:32:33;;;;;;;26.92;15.77;;;10.00;91.20;;;;;;5048351;28;20107;-75
2023/02/13 00:34:58;;;;;;;26.17;16.33;;;9.90;91.00;;;;;;5039576;28;20100;-73
2023/02/13 00:37:25;;;;;;;28.70;17.35;;;9.90;91.30;;;;;;5048395;28;20048;-74
2023/02/13 00:39:50;;;;;;;29.05;17.00;;;9.90;91.10;;;;;;5048290;28;20104;-74
2023/02/13 00:42:16;;;;;;;29.15;18.10;;;9.90;91.10;;;;;;5049521;28;20602;-73
2023/02/13 00:44:43;;;;;;;29.35;18.00;;;9.90;91.00;;;;;;5048615;28;20025;-73
2023/02/13 00:47:08;;;;;;;27.20;17.15;;;9.90;90.90;;;;;;5044933;28;20580;-73
2023/02/13 00:49:34;;;;;;;30.00;18.10;;;9.90;90.90;;;;;;5045368;28;20047;-74
2023/02/13 00:51:59;;;;;;;28.15;16.08;;;9.90;90.90;;;;;;5048562;28;20475;-73
2023/02/13 00:54:25;;;;;;;26.63;16.42;;;9.90;90.90;;;;;;5049713;28;20032;-74
2023/02/13 00:56:51;;;;;;;28.67;15.75;;;9.90;90.80;;;;;;5045691;28;20076;-75
2023/02/13 00:59:17;;;;;;;26.35;16.08;;;9.90;90.80;;;;;;5045856;28;20021;-74
2023/02/13 01:01:43;;;;;;;27.77;16.42;;;9.90;90.80;;;;;;5041673;28;20534;-74
2023/02/13 01:04:09;;;;;;;28.70;17.40;;;9.90;90.80;;;;;;5046454;28;20036;-74
2023/02/13 01:06:34;;;;;;;30.70;17.90;;;9.90;90.80;;;;;;5036768;28;20111;-74
2023/02/13 01:09:02;;;;;;;29.95;17.85;;;9.90;90.80;;;;;;5045846;28;20036;-73
2023/02/13 01:11:28;;;;;;;26.45;16.40;;;9.90;90.70;;;;;;5047320;28;20056;-74
2023/02/13 01:13:53;;;;;;;30.10;17.77;;;9.90;90.70;;;;;;5042870;28;20061;-74
2023/02/13 01:16:19;;;;;;;28.15;17.38;;;9.90;90.80;;;;;;5036158;28;20036;-74
2023/02/13 01:18:45;;;;;;;28.55;16.63;;;9.90;90.80;;;;;;5044543;28;20020;-74
2023/02/13 01:21:16;;;;;;;27.48;16.95;;;9.90;91.00;;;;;;5051522;28;20032;-73
2023/02/13 01:23:42;;;;;;;30.40;17.67;;;9.90;90.90;;;;;;5048573;28;20038;-73
2023/02/13 01:26:15;;;;;;;31.05;18.83;;;9.90;91.00;;;;;;5044277;28;20033;-74
2023/02/13 01:28:40;;;;;;;28.90;18.35;;;9.90;91.00;;;;;;5048347;28;20056;-74
2023/02/13 01:31:06;;;;;;;29.73;17.23;;;9.90;91.00;;;;;;5048545;28;20033;-73
2023/02/13 01:33:32;;;;;;;32.90;18.65;;;9.90;91.00;;;;;;5046221;28;20456;-74
2023/02/13 01:35:59;;;;;;;31.08;17.55;;;9.90;91.00;;;;;;5040078;28;20049;-74
2023/02/13 01:38:24;;;;;;;29.58;17.52;;;9.90;91.00;;;;;;5045699;28;20024;-75
2023/02/13 01:40:52;;;;;;;35.75;21.02;;;9.90;91.10;;;;;;5051857;28;20040;-75
2023/02/13 01:43:18;;;;;;;31.80;20.08;;;9.90;91.10;;;;;;5052891;28;20106;-74
2023/02/13 01:45:47;;;;;;;32.85;20.45;;;9.90;91.10;;;;;;5043039;28;20052;-73
2023/02/13 01:48:18;;;;;;;35.17;21.73;;;9.90;91.00;;;;;;5046712;28;20035;-74
2023/02/13 01:51:11;;;;;;;41.05;24.23;;;9.90;91.00;;;;;;5045028;28;20044;-74
2023/02/13 01:53:48;;;;;;;35.05;21.45;;;9.90;91.00;;;;;;5051393;28;20035;-74
2023/02/13 01:56:26;;;;;;;37.40;21.73;;;9.90;91.00;;;;;;5051032;28;20490;-74
2023/02/13 01:59:00;;;;;;;32.38;19.35;;;10.00;91.10;;;;;;5053069;28;20032;-74
2023/02/13 02:01:27;;;;;;;32.45;18.92;;;10.00;91.00;;;;;;5049540;28;20107;-75
2023/02/13 02:04:14;;;;;;;31.42;18.95;;;10.00;91.00;;;;;;5047311;28;20056;-74
2023/02/13 02:06:46;;;;;;;35.92;21.35;;;9.90;91.10;;;;;;5047421;28;20495;-75
2023/02/13 02:09:21;;;;;;;32.72;18.98;;;10.00;91.10;;;;;;5050679;28;20071;-74
2023/02/13 02:12:20;;;;;;;32.25;19.05;;;9.90;91.10;;;;;;5045638;28;20052;-73
2023/02/13 02:14:47;;;;;;;32.72;19.02;;;10.00;91.20;;;;;;5049325;28;20541;-74
2023/02/13 02:17:13;;;;;;;35.63;20.92;;;10.00;91.20;;;;;;5048305;28;20029;-74
2023/02/13 02:19:53;;;;;;;34.22;22.05;;;10.00;91.20;;;;;;5051063;28;20071;-75
2023/02/13 02:22:37;;;;;;;39.70;21.27;;;10.00;91.20;;;;;;5042735;28;21339;-74
2023/02/13 02:25:24;;;;;;;33.15;19.85;;;10.00;91.20;;;;;;5050758;28;20386;-74
2023/02/13 02:28:21;;;;;;;36.00;21.52;;;10.00;91.20;;;;;;5045618;28;20049;-73
2023/02/13 02:31:35;;;;;;;40.30;22.48;;;10.00;91.30;;;;;;5048691;28;20032;-74
2023/02/13 02:34:34;;;;;;;38.33;21.58;;;10.00;91.20;;;;;;5064982;28;20531;-74
2023/02/13 02:37:23;;;;;;;38.80;22.75;;;10.00;91.30;;;;;;5049991;28;20497;-74
2023/02/13 02:39:54;;;;;;;38.00;22.40;;;10.00;91.30;;;;;;5050603;28;20033;-74
2023/02/13 02:42:41;;;;;;;39.38;23.40;;;10.00;91.30;;;;;;5049542;28;20025;-75
2023/02/13 02:45:22;;;;;;;33.08;20.40;;;10.00;91.40;;;;;;5048058;28;20073;-74
2023/02/13 02:50:50;;;;;;;36.85;22.48;;;10.00;91.40;;;;;;5041012;28;20051;-74
2023/02/13 02:53:34;;;;;;;36.20;21.17;;;10.00;91.40;;;;;;5049150;28;20024;-74
2023/02/13 02:56:22;;;;;;;40.22;24.50;;;10.00;91.50;;;;;;5049541;28;20391;-74
2023/02/13 03:07:25;;;;;;;38.47;24.15;;;10.10;91.60;;;;;;5052561;28;20044;-73
2023/02/13 03:22:17;;;;;;;44.17;25.77;;;10.00;91.70;;;;;;5053225;28;20032;-73
2023/02/13 03:24:16;;;;;;;41.15;25.98;;;10.00;91.80;;;;;;5049731;28;20052;-73
2023/02/13 03:27:07;;;;;;;48.40;27.15;;;10.10;91.90;;;;;;5044301;28;20056;-73
2023/02/13 03:30:06;;;;;;;40.72;25.02;;;10.00;91.90;;;;;;5041777;28;20253;-74
2023/02/13 03:32:32;;;;;;;39.15;25.48;;;10.00;92.00;;;;;;5045012;28;20033;-73
2023/02/13 03:38:40;;;;;;;43.67;26.52;;;10.00;92.00;;;;;;5048327;28;20032;-73
2023/02/13 03:41:17;;;;;;;42.03;23.57;;;10.00;92.00;;;;;;5047887;28;20021;-75
2023/02/13 03:44:19;;;;;;;40.33;25.25;;;10.00;92.00;;;;;;5050122;28;20029;-74
2023/02/13 03:46:48;;;;;;;46.78;28.25;;;10.00;92.10;;;;;;5047819;28;20057;-74
2023/02/13 03:52:29;;;;;;;44.42;27.55;;;10.00;92.10;;;;;;5046770;28;20044;-74
2023/02/13 04:00:43;;;;;;;45.85;25.08;;;10.10;92.00;;;;;;5046790;28;20151;-75
2023/02/13 04:03:15;;;;;;;47.35;27.98;;;10.10;92.00;;;;;;5047453;28;20075;-73
2023/02/13 04:05:46;;;;;;;43.78;25.65;;;10.10;92.10;;;;;;5049507;28;20029;-74
2023/02/13 04:08:12;;;;;;;45.17;24.92;;;10.10;92.20;;;;;;5044286;28;20024;-74
2023/02/13 04:10:51;;;;;;;43.33;26.27;;;10.10;92.20;;;;;;5049494;28;20017;-74
2023/02/13 04:13:30;;;;;;;41.53;25.80;;;10.10;92.20;;;;;;5048625;28;20027;-74
2023/02/13 04:16:07;;;;;;;42.65;25.63;;;10.10;92.20;;;;;;5038297;28;20120;-75
2023/02/13 04:18:33;;;;;;;41.50;25.85;;;10.10;92.20;;;;;;5047469;28;20864;-74
2023/02/13 04:21:04;;;;;;;41.83;25.90;;;10.10;92.20;;;;;;5045853;28;20523;-75
2023/02/13 04:23:30;;;;;;;43.08;26.55;;;10.10;92.20;;;;;;5049822;28;20078;-74
2023/02/13 04:25:56;;;;;;;45.45;26.63;;;10.10;92.20;;;;;;5044771;28;20025;-73
2023/02/13 04:28:22;;;;;;;45.88;28.83;;;10.20;92.50;;;;;;5033730;28;20154;-75
2023/02/13 04:30:48;;;;;;;43.05;25.17;;;10.20;92.30;;;;;;5044204;28;20471;-74
2023/02/13 04:33:14;;;;;;;41.22;25.35;;;10.10;92.20;;;;;;5037181;28;20102;-74
2023/02/13 04:35:40;;;;;;;46.95;27.77;;;10.20;92.20;;;;;;5047779;28;20032;-74
2023/02/13 04:38:06;;;;;;;45.55;27.05;;;10.20;92.20;;;;;;5048382;28;20029;-74
2023/02/13 04:40:33;;;;;;;45.92;27.35;;;10.20;92.20;;;;;;5050092;28;20027;-73
2023/02/13 04:42:59;;;;;;;45.15;26.85;;;10.20;92.20;;;;;;5050950;28;20021;-74
2023/02/13 04:45:25;;;;;;;41.65;26.05;;;10.20;92.30;;;;;;5049114;28;20040;-74
2023/02/13 04:47:53;;;;;;;43.53;26.63;;;10.20;92.30;;;;;;5048128;28;20048;-75
2023/02/13 04:50:18;;;;;;;44.20;24.52;;;10.20;92.30;;;;;;5044412;28;20024;-74
2023/02/13 04:52:44;;;;;;;44.35;27.20;;;10.10;92.30;;;;;;5048511;28;20036;-74
2023/02/13 04:55:10;;;;;;;42.58;26.27;;;10.10;92.30;;;;;;5041865;28;20073;-73
2023/02/13 04:57:36;;;;;;;45.42;27.48;;;10.10;92.30;;;;;;5036500;28;20116;-74
2023/02/13 05:00:04;;;;;;;48.10;28.80;;;10.10;92.40;;;;;;5043663;28;20179;-74
2023/02/13 05:02:31;;;;;;;46.75;29.00;;;10.20;92.40;;;;;;5042107;28;20476;-74
2023/02/13 05:04:56;;;;;;;42.78;26.73;;;10.10;92.30;;;;;;5046396;28;20028;-76
2023/02/13 05:07:22;;;;;;;47.80;29.17;;;10.10;92.40;;;;;;5046613;28;20056;-74
2023/02/13 05:09:47;;;;;;;44.47;26.17;;;10.10;92.40;;;;;;5043455;28;20024;-72
2023/02/13 05:12:13;;;;;;;44.60;27.40;;;10.10;92.40;;;;;;5053230;28;20021;-74
2023/02/13 05:14:39;;;;;;;50.67;28.52;;;10.10;92.40;;;;;;5047024;28;20384;-74
2023/02/13 05:17:04;;;;;;;47.58;28.55;;;10.10;92.50;;;;;;5046661;28;20491;-74
2023/02/13 05:19:30;;;;;;;40.15;25.33;;;10.20;92.50;;;;;;5048768;28;20724;-73
2023/02/13 05:24:39;;;;;;;46.20;27.45;;;10.10;92.40;;;;;;5055382;28;20075;-74
2023/02/13 05:27:05;;;;;;;47.80;28.65;;;10.10;92.40;;;;;;5045657;28;20483;-75
2023/02/13 05:29:31;;;;;;;42.90;25.70;;;10.10;92.50;;;;;;5044802;28;20144;-74
2023/02/13 05:31:58;;;;;;;45.75;28.15;;;10.10;92.60;;;;;;5034610;23;20137;-74
2023/02/13 05:34:26;;;;;;;40.47;25.52;;;10.10;92.70;;;;;;5019862;28;20021;-75
2023/02/13 05:36:52;;;;;;;49.75;29.55;;;10.10;92.70;;;;;;5006133;28;20022;-74
2023/02/13 05:39:18;;;;;;;41.47;26.92;;;10.10;92.70;;;;;;5020025;28;20045;-74
2023/02/13 05:41:45;;;;;;;47.25;28.35;;;10.10;92.70;;;;;;5008837;28;20030;-75
2023/02/13 05:44:12;;;;;;;45.55;26.42;;;10.10;92.70;;;;;;5017004;28;20029;-74
2023/02/13 05:46:39;;;;;;;43.00;26.45;;;10.10;92.70;;;;;;5018494;28;20088;-74
2023/02/13 05:49:05;;;;;;;45.63;27.90;;;10.10;92.70;;;;;;5017781;28;20634;-74
2023/02/13 05:51:31;;;;;;;47.50;30.85;;;10.10;92.70;;;;;;4995389;28;20025;-74
2023/02/13 05:53:57;;;;;;;47.10;29.17;;;10.10;92.70;;;;;;4997201;28;20024;-75
2023/02/13 05:56:23;;;;;;;41.63;25.45;;;10.10;92.80;;;;;;5014876;28;20030;-75
2023/02/13 05:58:55;;;;;;;44.63;28.63;;;10.10;92.80;;;;;;5015013;28;20026;-75
2023/02/13 06:01:23;;;;;;;43.58;27.13;;;10.10;92.70;;;;;;4993841;28;20034;-74
2023/02/13 06:03:49;;;;;;;45.35;29.05;;;10.10;93.00;;;;;;5013938;28;20396;-75
2023/02/13 06:06:15;;;;;;;41.72;27.58;;;10.10;93.10;;;;;;5006884;28;20030;-74
2023/02/13 06:08:41;;;;;;;42.25;27.13;;;10.10;92.80;;;;;;5006497;28;20046;-74
2023/02/13 06:11:08;;;;;;;40.35;24.60;;;10.10;92.80;;;;;;5005577;28;20022;-74
2023/02/13 06:13:33;;;;;;;43.78;27.98;;;10.00;92.80;;;;;;4985980;28;20390;-74
2023/02/13 06:15:59;;;;;;;40.97;26.00;;;10.00;92.90;;;;;;5004183;28;20045;-74
2023/02/13 06:18:25;;;;;;;41.72;26.25;;;9.90;92.90;;;;;;4995291;28;20437;-74
2023/02/13 06:20:50;;;;;;;40.45;26.45;;;9.90;93.00;;;;;;4988762;28;20026;-74
2023/02/13 06:23:16;;;;;;;39.33;25.48;;;9.80;93.00;;;;;;5005307;28;20022;-74
2023/02/13 06:25:42;;;;;;;42.28;25.45;;;9.80;93.20;;;;;;5011483;28;20026;-73
2023/02/13 06:28:08;;;;;;;44.20;30.00;;;9.80;93.20;;;;;;5008793;28;20034;-75
2023/02/13 06:30:34;;;;;;;43.45;26.17;;;9.70;93.30;;;;;;5009074;28;20101;-75
2023/02/13 06:33:00;;;;;;;46.80;29.05;;;9.70;93.40;;;;;;5009206;28;20596;-73
2023/02/13 06:35:26;;;;;;;45.25;28.25;;;9.70;93.50;;;;;;5009039;28;20030;-74
2023/02/13 06:37:51;;;;;;;43.42;25.50;;;9.70;93.50;;;;;;5012000;28;20057;-74
2023/02/13 06:40:17;;;;;;;44.83;28.20;;;9.70;93.60;;;;;;4993074;28;20037;-74
2023/02/13 06:42:44;;;;;;;36.75;23.85;;;9.70;93.70;;;;;;5011594;28;20026;-75
2023/02/13 06:45:11;;;;;;;34.95;22.35;;;9.70;93.80;;;;;;4992562;28;20117;-74
2023/02/13 06:47:44;;;;;;;40.38;24.65;;;9.70;93.90;;;;;;4998633;28;20042;-74
2023/02/13 06:50:11;;;;;;;42.65;28.30;;;9.60;93.90;;;;;;5006976;28;20014;-74
2023/02/13 06:52:36;;;;;;;36.65;23.65;;;9.60;93.90;;;;;;4992043;28;20030;-74
2023/02/13 06:55:02;;;;;;;41.97;27.58;;;9.60;94.00;;;;;;4992222;28;20021;-74
2023/02/13 06:57:31;;;;;;;39.20;26.92;;;9.60;94.00;;;;;;5005221;28;20038;-75
2023/02/13 06:59:58;;;;;;;36.65;22.50;;;9.60;94.00;;;;;;5006454;28;20336;-74
2023/02/13 07:02:23;;;;;;;37.35;23.98;;;9.70;94.00;;;;;;5008052;28;20040;-75
2023/02/13 07:04:49;;;;;;;35.28;22.80;;;9.70;94.00;;;;;;5009530;28;20397;-74
2023/02/13 07:07:15;;;;;;;41.35;25.70;;;9.70;94.10;;;;;;4995670;28;20484;-74
2023/02/13 07:09:40;;;;;;;41.85;27.55;;;9.70;94.10;;;;;;5007517;28;20073;-75
2023/02/13 07:12:07;;;;;;;39.05;25.27;;;9.70;94.20;;;;;;5008736;28;20105;-74
2023/02/13 07:14:32;;;;;;;32.40;21.08;;;9.70;94.20;;;;;;5006449;28;20147;-75
2023/02/13 07:16:58;;;;;;;43.55;27.73;;;9.70;94.20;;;;;;4992693;28;20463;-75
2023/02/13 07:19:23;;;;;;;39.10;25.15;;;9.70;94.50;;;;;;5015448;28;20083;-74
2023/02/13 07:21:49;;;;;;;37.75;24.48;;;9.70;94.30;;;;;;5003673;28;20480;-74
2023/02/13 07:24:15;;;;;;;43.40;25.83;;;9.70;94.30;;;;;;5004414;28;20033;-74
2023/02/13 07:26:40;;;;;;;36.95;25.13;;;9.70;94.20;;;;;;5001403;28;20444;-75
2023/02/13 07:29:06;;;;;;;34.65;21.65;;;9.80;94.20;;;;;;4999342;28;20066;-75
2023/02/13 07:31:34;;;;;;;36.65;21.83;;;9.80;94.20;;;;;;5010034;28;20045;-74
2023/02/13 07:34:00;;;;;;;38.53;25.98;;;9.80;94.20;;;;;;5000879;28;20037;-74
2023/02/13 07:36:26;;;;;;;35.47;23.55;;;9.80;94.20;;;;;;5002269;28;20025;-74
2023/02/13 07:38:53;;;;;;;38.03;25.10;;;9.80;94.30;;;;;;4992369;28;20018;-75
2023/02/13 07:41:20;;;;;;;45.22;30.33;;;9.90;94.20;;;;;;5007187;28;20096;-74
2023/02/13 07:43:45;;;;;;;38.28;25.20;;;9.80;94.20;;;;;;5010568;28;20034;-74
2023/02/13 07:46:11;;;;;;;48.38;30.20;;;9.80;94.20;;;;;;4999941;28;20097;-74
2023/02/13 07:48:36;;;;;;;40.55;28.95;;;9.80;94.30;;;;;;4996748;28;20025;-74
2023/02/13 07:51:04;;;;;;;46.67;29.90;;;9.80;94.30;;;;;;5004055;28;20400;-75
2023/02/13 07:53:30;;;;;;;43.60;28.70;;;9.80;94.40;;;;;;4988828;28;20427;-73
2023/02/13 07:55:56;;;;;;;45.30;29.90;;;9.80;94.30;;;;;;5008357;28;20021;-73
2023/02/13 07:58:24;;;;;;;45.08;27.58;;;9.80;94.20;;;;;;5008707;28;20481;-72
2023/02/13 08:00:50;;;;;;;44.50;29.48;;;9.80;94.30;;;;;;4991080;28;20380;-74
2023/02/13 08:03:16;;;;;;;41.88;28.45;;;9.90;94.30;;;;;;5003191;28;20064;-73
2023/02/13 08:05:42;;;;;;;46.22;30.27;;;9.90;94.30;;;;;;4991662;28;20050;-73
2023/02/13 08:08:07;;;;;;;46.67;31.90;;;9.90;94.30;;;;;;5013660;28;20025;-73
2023/02/13 08:13:17;;;;;;;44.22;30.38;;;9.90;94.30;;;;;;5008930;28;20089;-74
2023/02/13 08:15:43;;;;;;;43.80;28.17;;;10.00;94.20;;;;;;4988990;28;20125;-74
2023/02/13 08:18:09;;;;;;;43.58;29.20;;;10.00;94.20;;;;;;4992084;28;20022;-74
2023/02/13 08:20:35;;;;;;;46.92;31.10;;;10.00;94.20;;;;;;4990977;28;20030;-74
2023/02/13 08:23:03;;;;;;;42.60;27.48;;;10.10;94.20;;;;;;4997413;28;20092;-73
2023/02/13 08:25:29;;;;;;;41.45;28.33;;;10.10;94.10;;;;;;4972415;28;20443;-74
2023/02/13 08:27:55;;;;;;;48.45;30.70;;;10.10;94.10;;;;;;4986491;28;20145;-73
2023/02/13 08:30:20;;;;;;;44.45;27.92;;;10.10;94.10;;;;;;4992574;28;20034;-73
2023/02/13 08:32:46;;;;;;;41.50;28.40;;;10.20;94.10;;;;;;5009266;28;20834;-74
2023/02/13 08:35:12;;;;;;;41.65;27.48;;;10.30;93.90;;;;;;5002769;28;20026;-73
2023/02/13 08:37:38;;;;;;;33.30;22.02;;;10.40;93.70;;;;;;5000133;28;20101;-72
2023/02/13 08:40:04;;;;;;;41.40;27.63;;;10.50;93.90;;;;;;4985812;28;20136;-74
2023/02/13 08:42:29;;;;;;;41.45;29.73;;;10.60;93.50;;;;;;4997370;28;20484;-73
2023/02/13 08:44:55;;;;;;;39.30;27.40;;;10.70;93.30;;;;;;4980743;28;20026;-74
2023/02/13 08:47:20;;;;;;;38.35;25.98;;;10.80;92.90;;;;;;4980592;28;20046;-74
2023/02/13 08:49:46;;;;;;;39.58;27.80;;;10.90;92.60;;;;;;4998653;28;20484;-74
2023/02/13 08:52:12;;;;;;;31.70;22.50;;;11.10;92.50;;;;;;4988009;28;20099;-76
2023/02/13 08:54:37;;;;;;;33.05;21.92;;;11.30;92.30;;;;;;4990693;28;20112;-77
2023/02/13 08:57:03;;;;;;;29.05;20.13;;;11.40;92.00;;;;;;5002856;28;20120;-75
2023/02/13 08:59:29;;;;;;;30.88;20.95;;;11.60;92.00;;;;;;4986316;28;20080;-76
2023/02/13 09:01:56;;;;;;;29.05;22.08;;;11.70;91.90;;;;;;5006182;28;20036;-77
2023/02/13 09:04:21;;;;;;;27.38;18.45;;;11.80;91.50;;;;;;5000164;28;20029;-76
2023/02/13 09:06:47;;;;;;;27.60;17.77;;;11.80;91.50;;;;;;4988747;28;20033;-76
2023/02/13 09:09:13;;;;;;;26.73;17.83;;;11.90;91.50;;;;;;5000572;28;20034;-76
2023/02/13 09:11:38;;;;;;;25.67;18.38;;;11.90;91.30;;;;;;4994695;28;20033;-76
2023/02/13 09:14:04;;;;;;;27.33;19.35;;;12.00;91.50;;;;;;4977674;28;20053;-76
2023/02/13 09:16:29;;;;;;;28.38;19.50;;;12.20;91.40;;;;;;4995103;28;20042;-76
2023/02/13 09:18:55;;;;;;;22.02;15.05;;;12.40;90.90;;;;;;4988435;28;20392;-76
2023/02/13 09:21:22;;;;;;;22.55;15.60;;;12.40;90.50;;;;;;4995728;28;20141;-76
2023/02/13 09:23:49;;;;;;;21.20;15.10;;;12.50;90.70;;;;;;5010016;28;20057;-75
2023/02/13 09:26:15;;;;;;;19.77;13.88;;;12.50;91.00;;;;;;5007848;28;20034;-76
2023/02/13 09:28:41;;;;;;;20.52;14.73;;;12.60;90.40;;;;;;5004367;28;20026;-76
2023/02/13 09:31:08;;;;;;;25.42;18.38;;;12.60;90.80;;;;;;5004035;28;20083;-77
2023/02/13 09:33:34;;;;;;;25.25;18.25;;;12.80;90.50;;;;;;5004927;28;20022;-76
2023/02/13 09:36:08;;;;;;;24.45;17.98;;;12.90;90.40;;;;;;4990050;28;20030;-76
2023/02/13 09:38:34;;;;;;;21.63;14.15;;;13.00;90.10;;;;;;4997154;28;20022;-77
2023/02/13 09:41:06;;;;;;;24.10;16.20;;;13.10;90.30;;;;;;5002053;28;20030;-77
2023/02/13 09:43:52;;;;;;;25.13;16.80;;;13.20;90.30;;;;;;4997827;28;20029;-76
2023/02/13 09:46:23;;;;;;;22.27;14.45;;;13.30;90.10;;;;;;4986146;28;20042;-76
2023/02/13 09:48:53;;;;;;;22.65;14.23;;;13.40;90.10;;;;;;4990432;28;20026;-75
2023/02/13 09:51:20;;;;;;;;;;;13.60;90.10;;;;;;4990864;28;20109;-76
2023/02/13 09:54:00;;;;;;;18.25;12.20;;;13.80;90.10;;;;;;4996499;28;19956;-77
2023/02/13 09:56:53;;;;;;;20.45;12.43;;;13.80;89.40;;;;;;4995591;28;20091;-76
2023/02/13 09:59:38;;;;;;;20.45;14.23;;;13.70;90.20;;;;;;4984382;28;20127;-76
2023/02/13 10:02:30;;;;;;;24.90;16.42;;;13.50;89.80;;;;;;5000972;28;20029;-76
2023/02/13 10:05:13;;;;;;;18.58;13.23;;;13.20;89.40;;;;;;5004248;28;20034;-76
2023/02/13 10:08:07;;;;;;;17.08;11.73;;;13.20;90.70;;;;;;5003701;28;20022;-74
2023/02/13 10:10:35;;;;;;;20.20;13.70;;;13.30;90.90;;;;;;5007014;28;20489;-76
2023/02/13 10:13:04;;;;;;;18.95;11.77;;;13.20;90.70;;;;;;5010513;28;20512;-76
2023/02/13 10:15:45;;;;;;;18.08;12.48;;;13.20;91.10;;;;;;5012223;28;20022;-75
2023/02/13 10:18:22;;;;;;;17.65;12.73;;;13.00;91.40;;;;;;5007781;28;20037;-77
2023/02/13 10:20:51;;;;;;;23.70;16.52;;;12.90;91.40;;;;;;5011381;28;20794;-75
2023/02/13 10:23:33;;;;;;;19.45;12.48;;;13.00;91.10;;;;;;5014734;28;20030;-77
2023/02/13 10:26:41;;;;;;;19.08;13.90;;;13.10;91.20;;;;;;5013083;28;20030;-76
2023/02/13 10:32:28;;;;;;;20.65;14.65;;;13.40;90.60;;;;;;5005161;28;20108;-74
2023/02/13 10:34:58;;;;;;;23.90;14.95;;;13.60;90.40;;;;;;4985001;28;20493;-76
2023/02/13 10:37:28;;;;;;;20.70;13.70;;;13.70;89.50;;;;;;5001331;28;20019;-77
2023/02/13 10:39:53;;;;;;;23.03;15.20;;;13.60;90.30;;;;;;4989503;28;20087;-76
2023/02/13 10:42:23;;;;;;;17.55;12.57;;;13.60;90.40;;;;;;5013142;28;20018;-76
2023/02/13 10:44:49;;;;;;;;;;;13.70;90.00;;;;;;4998774;28;20026;-76
2023/02/13 10:47:20;;;;;;;17.20;11.73;;;13.80;89.80;;;;;;5009133;28;19924;-76
2023/02/13 10:49:52;;;;;;;18.70;12.10;;;14.00;89.10;;;;;;4987030;28;20168;-77
2023/02/13 10:52:45;;;;;;;15.68;10.65;;;14.10;90.00;;;;;;5008067;28;20041;-76
2023/02/13 10:55:25;;;;;;;17.95;11.10;;;14.30;89.70;;;;;;4991766;28;20029;-76
2023/02/13 10:58:06;;;;;;;16.15;9.45;;;14.40;90.00;;;;;;4993688;28;20025;-76
2023/02/13 11:00:37;;;;;;;13.68;9.57;;;14.40;90.60;;;;;;5007833;28;20030;-76
2023/02/13 11:03:03;;;;;;;17.08;10.15;;;14.50;90.40;;;;;;5006828;28;20022;-77
2023/02/13 11:05:32;;;;;;;14.70;11.15;;;14.50;91.10;;;;;;4993040;28;20096;-76
2023/02/13 11:07:58;;;;;;;16.38;11.40;;;14.60;90.60;;;;;;5007900;28;20064;-75
2023/02/13 11:10:26;;;;;;;17.75;10.73;;;14.70;90.30;;;;;;5001091;28;20026;-75
2023/02/13 11:12:52;;;;;;;17.38;12.32;;;14.70;90.30;;;;;;4999216;28;20041;-75
2023/02/13 11:15:31;;;;;;;21.92;16.75;;;14.80;89.80;;;;;;4999161;28;20307;-77
2023/02/13 11:18:01;;;;;;;20.65;13.73;;;14.80;85.30;;;;;;4997583;28;20030;-77
2023/02/13 11:20:35;;;;;;;19.17;11.13;;;14.80;86.60;;;;;;5002353;28;20029;-77
2023/02/13 11:23:32;;;;;;;17.60;12.18;;;14.90;87.80;;;;;;4992193;28;20018;-76
2023/02/13 11:26:08;;;;;;;22.15;15.60;;;15.10;88.40;;;;;;4994221;28;20401;-76
2023/02/13 11:28:55;;;;;;;15.55;10.25;;;15.00;85.60;;;;;;5002396;28;20113;-76
2023/02/13 11:31:27;;;;;;;15.48;9.52;;;14.90;89.00;;;;;;4979205;28;20069;-77
2023/02/13 11:33:53;;;;;;;15.85;10.00;;;15.10;90.80;;;;;;5004178;28;20054;-76
2023/02/13 11:36:32;;;;;;;15.50;11.10;;;15.10;90.50;;;;;;5013788;28;20026;-75
2023/02/13 11:39:01;;;;;;;17.60;13.10;;;15.20;90.40;;;;;;5007586;28;20042;-76
2023/02/13 11:41:28;;;;;;;16.40;11.43;;;15.20;85.90;;;;;;4987831;28;20030;-76
2023/02/13 11:44:04;;;;;;;16.70;11.77;;;15.20;88.30;;;;;;4989543;28;20022;-75
2023/02/13 11:46:49;;;;;;;11.23;8.18;;;15.10;87.70;;;;;;4998417;28;20133;-76
2023/02/13 11:49:19;;;;;;;16.73;12.85;;;15.10;90.40;;;;;;4989945;28;20052;-76
2023/02/13 11:51:51;;;;;;;16.08;11.85;;;15.20;86.60;;;;;;4981664;28;20029;-76
2023/02/13 11:54:24;;;;;;;20.05;15.02;;;15.20;88.50;;;;;;4993262;28;20022;-76
2023/02/13 11:56:56;;;;;;;14.50;8.90;;;15.30;90.10;;;;;;4996293;28;20019;-76
2023/02/13 11:59:24;;;;;;;14.00;10.73;;;15.40;90.70;;;;;;5006448;28;20034;-76
2023/02/13 12:02:21;;;;;;;20.65;13.55;;;15.60;90.90;;;;;;5006968;28;20026;-76
2023/02/13 12:04:53;;;;;;;12.57;8.60;;;15.70;89.60;;;;;;5002749;28;20025;-76
2023/02/13 12:07:32;;;;;;;11.20;7.68;;;15.80;91.00;;;;;;4993959;28;20053;-75
2023/02/13 12:10:22;;;;;;;14.57;10.10;;;16.00;93.00;;;;;;5006853;28;20022;-76
2023/02/13 12:12:54;;;;;;;12.48;7.38;;;16.20;92.70;;;;;;5016384;28;20058;-76
2023/02/13 12:15:26;;;;;;;12.43;7.72;;;16.30;92.10;;;;;;5006602;28;20053;-75
2023/02/13 12:18:21;;;;;;;10.98;8.27;;;16.40;93.50;;;;;;4981161;28;20046;-77
2023/02/13 12:21:21;;;;;;;10.48;6.57;;;16.50;93.40;;;;;;5002628;28;20105;-76
2023/02/13 12:23:59;;;;;;;11.17;7.83;;;16.70;93.70;;;;;;5008638;28;20022;-75
2023/02/13 12:26:41;;;;;;;10.80;7.88;;;16.80;93.50;;;;;;5007239;28;20390;-75
2023/02/13 12:29:32;;;;;;;14.73;11.23;;;16.90;93.30;;;;;;5007682;28;20089;-76
2023/02/13 12:32:06;;;;;;;16.17;11.27;;;17.10;90.70;;;;;;5010231;28;20170;-75
2023/02/13 12:34:37;;;;;;;11.52;7.55;;;17.00;90.70;;;;;;5024447;28;20022;-73
2023/02/13 12:37:18;;;;;;;14.38;10.63;;;17.00;92.70;;;;;;5025032;28;20090;-74
2023/02/13 12:40:01;;;;;;;10.25;7.15;;;17.10;91.20;;;;;;5003537;28;20022;-74
2023/02/13 12:42:56;;;;;;;10.15;6.35;;;17.10;93.30;;;;;;5002755;28;20429;-76
2023/02/13 12:45:46;;;;;;;9.82;7.18;;;17.20;93.30;;;;;;4971435;28;20114;-76
2023/02/13 12:48:43;;;;;;;12.23;7.82;;;17.30;93.00;;;;;;4982253;28;20113;-75
2023/02/13 12:51:23;;;;;;;12.57;9.27;;;17.30;92.30;;;;;;5000132;28;20034;-76
2023/02/13 12:54:20;;;;;;;13.00;8.73;;;17.30;91.20;;;;;;4978793;28;20539;-76
2023/02/13 12:56:56;;;;;;;14.05;10.20;;;17.30;91.70;;;;;;5008114;28;20026;-75
2023/02/13 12:59:34;;;;;;;12.90;8.90;;;17.20;89.60;;;;;;5011355;28;20054;-75
2023/02/13 13:02:18;;;;;;;12.85;7.15;;;17.10;90.70;;;;;;5015921;28;20037;-75
2023/02/13 13:04:55;;;;;;;12.05;7.00;;;17.20;92.20;;;;;;5009462;28;20161;-74
2023/02/13 13:07:30;;;;;;;12.80;8.63;;;17.30;92.50;;;;;;5019525;28;20042;-76
2023/02/13 13:10:25;;;;;;;9.45;7.15;;;17.30;90.60;;;;;;5011293;28;20023;-76
2023/02/13 13:12:53;;;;;;;11.07;7.70;;;17.20;91.30;;;;;;4989972;28;20022;-76
2023/02/13 13:15:47;;;;;;;10.52;6.78;;;17.30;92.00;;;;;;4983654;28;20413;-75
2023/02/13 13:18:21;;;;;;;10.48;7.32;;;17.40;92.40;;;;;;5007939;28;20018;-76
2023/02/13 13:20:56;;;;;;;12.02;9.20;;;17.50;92.30;;;;;;5004250;28;20093;-76
2023/02/13 13:23:33;;;;;;;12.85;9.20;;;17.50;92.20;;;;;;4999434;28;20033;-75
2023/02/13 13:26:07;;;;;;;13.02;9.27;;;17.50;92.00;;;;;;4999097;28;20034;-75
2023/02/13 13:28:44;;;;;;;11.60;7.57;;;17.60;91.20;;;;;;5013876;28;20317;-76
2023/02/13 13:31:11;;;;;;;10.38;6.78;;;17.60;90.90;;;;;;4994678;28;20025;-76
2023/02/13 13:33:42;;;;;;;11.07;7.88;;;17.70;91.70;;;;;;5012029;28;20041;-76
2023/02/13 13:36:29;;;;;;;13.65;9.95;;;17.70;91.60;;;;;;5009820;28;20039;-76